Time;durP1;ratioP1;P1;durP2;ratioP2;P2;SDS_P1;SDS_P2;PMS_P1;PMS_P2;Temp;Humidity;BMP_temperature;BMP_pressure;BME280_temperature;BME280_humidity;BME280_pressure;Samples;Min_cycle;Max_cycle;Signal;HPM_P1;HPM_P2
2022/05/12 00:00:53;;;;;;;3.60;0.98;;;11.50;99.90;;;;;;4231380;28;20090;-85
2022/05/12 00:02:55;;;;;;;5.80;1.02;;;11.50;99.90;;;;;;4249656;27;20150;-84
2022/05/12 00:04:56;;;;;;;5.43;0.90;;;11.50;99.90;;;;;;4249446;27;20043;-84
2022/05/12 00:06:57;;;;;;;5.22;0.98;;;11.50;99.90;;;;;;4248329;27;20505;-84
2022/05/12 00:08:58;;;;;;;3.55;1.05;;;11.50;99.90;;;;;;4230618;28;20310;-84
2022/05/12 00:10:59;;;;;;;2.63;0.98;;;11.40;99.90;;;;;;4249443;27;20506;-85
2022/05/12 00:12:59;;;;;;;4.45;0.85;;;11.40;99.90;;;;;;4249309;27;20053;-84
2022/05/12 00:15:01;;;;;;;3.03;0.90;;;11.40;99.90;;;;;;4248589;27;20046;-85
2022/05/12 00:17:02;;;;;;;2.33;0.82;;;11.30;99.90;;;;;;4231274;28;20088;-84
2022/05/12 00:19:03;;;;;;;3.65;0.80;;;11.20;99.90;;;;;;4249250;27;20082;-85
2022/05/12 00:21:03;;;;;;;3.90;0.82;;;11.20;99.90;;;;;;4247774;27;20042;-85
2022/05/12 00:23:13;;;;;;;4.22;1.17;;;11.10;99.90;;;;;;4249151;27;20095;-85
2022/05/12 00:25:22;;;;;;;5.05;1.30;;;11.10;99.90;;;;;;4231460;28;20043;-85
2022/05/12 00:27:22;;;;;;;2.88;0.80;;;11.40;99.90;;;;;;4248938;27;20521;-84
2022/05/12 00:29:23;;;;;;;6.22;1.05;;;11.00;99.90;;;;;;4248769;27;20047;-84
2022/05/12 00:31:25;;;;;;;3.00;1.27;;;11.00;99.90;;;;;;4231154;28;20043;-85
2022/05/12 00:33:27;;;;;;;3.13;0.70;;;11.30;99.90;;;;;;4231218;28;20052;-84
2022/05/12 00:35:28;;;;;;;2.58;1.17;;;10.80;99.90;;;;;;4248169;27;20043;-85
2022/05/12 00:37:29;;;;;;;2.47;0.60;;;10.90;99.90;;;;;;4249621;27;20047;-85
2022/05/12 00:39:30;;;;;;;4.22;0.80;;;10.80;99.90;;;;;;4249307;27;20116;-84
2022/05/12 00:41:31;;;;;;;1.38;0.50;;;10.90;99.90;;;;;;4249565;27;20043;-85
2022/05/12 00:43:45;;;;;;;4.22;0.80;;;10.70;99.90;;;;;;4230500;28;20047;-84
2022/05/12 00:45:46;;;;;;;1.60;0.50;;;10.70;99.90;;;;;;4231133;28;20055;-85
2022/05/12 00:47:46;;;;;;;1.13;0.70;;;10.70;99.90;;;;;;4248901;27;20047;-84
2022/05/12 00:49:49;;;;;;;3.05;0.52;;;10.60;99.90;;;;;;4249123;27;20151;-83
2022/05/12 00:51:56;;;;;;;6.22;0.95;;;10.60;99.90;;;;;;4248818;27;20100;-84
2022/05/12 00:54:00;;;;;;;0.57;0.52;;;10.50;99.90;;;;;;4247506;27;20054;-84
2022/05/12 00:56:02;;;;;;;2.42;0.65;;;10.50;99.90;;;;;;4248948;27;20153;-84
2022/05/12 00:58:07;;;;;;;2.72;0.70;;;10.40;99.90;;;;;;4230264;28;20059;-84
2022/05/12 01:00:11;;;;;;;5.30;0.60;;;10.50;99.90;;;;;;4243603;27;20075;-85
2022/05/12 01:02:17;;;;;;;1.83;0.30;;;10.50;99.90;;;;;;4232666;28;20036;-84
2022/05/12 01:04:20;;;;;;;0.93;0.60;;;10.40;99.90;;;;;;4213253;28;20427;-84
2022/05/12 01:06:21;;;;;;;2.25;0.80;;;10.50;99.90;;;;;;4249338;27;20039;-84
2022/05/12 01:08:23;;;;;;;1.80;0.60;;;10.40;99.90;;;;;;4248420;27;20197;-85
2022/05/12 01:10:25;;;;;;;3.92;0.80;;;10.40;99.90;;;;;;4230773;28;20040;-84
2022/05/12 01:12:26;;;;;;;2.95;0.63;;;10.30;99.90;;;;;;4230842;28;20044;-84
2022/05/12 01:14:26;;;;;;;1.48;0.50;;;10.30;99.90;;;;;;4213273;28;20126;-85
2022/05/12 01:16:52;;;;;;;2.67;0.45;;;10.30;99.90;;;;;;4230586;28;20047;-84
2022/05/12 01:18:53;;;;;;;3.63;0.85;;;10.30;99.90;;;;;;4247710;27;20057;-84
2022/05/12 01:20:56;;;;;;;3.58;0.50;;;10.60;99.90;;;;;;4230007;28;20051;-84
2022/05/12 01:23:02;;;;;;;2.42;1.10;;;10.20;99.90;;;;;;4248799;28;20054;-84
2022/05/12 01:25:09;;;;;;;2.42;0.75;;;10.20;99.90;;;;;;4248446;27;20043;-84
2022/05/12 01:27:20;;;;;;;0.82;0.50;;;10.20;99.90;;;;;;4216707;28;20059;-85
2022/05/12 01:29:20;;;;;;;2.75;0.80;;;10.20;99.90;;;;;;4233939;28;20052;-84
2022/05/12 01:31:22;;;;;;;2.47;1.00;;;10.20;99.90;;;;;;4251391;27;20364;-83
2022/05/12 01:33:23;;;;;;;0.90;0.45;;;10.50;99.90;;;;;;4251843;27;20123;-85
2022/05/12 01:35:25;;;;;;;1.95;0.60;;;10.10;99.90;;;;;;4233783;28;20511;-84
2022/05/12 01:37:26;;;;;;;1.52;0.70;;;10.10;99.90;;;;;;4233513;28;20048;-85
2022/05/12 01:39:27;;;;;;;1.65;0.70;;;10.10;99.90;;;;;;4233792;28;20062;-85
2022/05/12 01:41:28;;;;;;;2.88;0.60;;;10.00;99.90;;;;;;4233386;28;20048;-85
2022/05/12 01:43:29;;;;;;;3.28;0.55;;;10.00;99.90;;;;;;4233501;28;20140;-85
2022/05/12 01:45:29;;;;;;;1.90;0.60;;;9.90;99.90;;;;;;4233082;28;20532;-84
2022/05/12 01:47:30;;;;;;;4.90;0.70;;;9.90;99.90;;;;;;4233933;28;20078;-84
2022/05/12 01:49:33;;;;;;;2.83;0.63;;;9.80;99.90;;;;;;4252027;27;20074;-84
2022/05/12 01:51:35;;;;;;;2.17;0.63;;;8.90;99.90;;;;;;4233411;28;20511;-85
2022/05/12 01:53:37;;;;;;;1.95;0.60;;;9.80;99.90;;;;;;4233294;28;20048;-84
2022/05/12 01:55:43;;;;;;;0.80;0.55;;;10.20;99.90;;;;;;4216731;28;20081;-84
2022/05/12 01:57:43;;;;;;;2.42;0.60;;;9.80;99.90;;;;;;4251489;27;20131;-84
2022/05/12 01:59:44;;;;;;;3.45;0.88;;;9.80;99.90;;;;;;4249542;27;20096;-85
2022/05/12 02:01:47;;;;;;;2.78;0.98;;;9.80;99.90;;;;;;4233358;28;20047;-85
2022/05/12 02:03:48;;;;;;;1.88;0.73;;;9.70;99.90;;;;;;4234633;28;20039;-85
2022/05/12 02:05:48;;;;;;;2.53;0.85;;;9.70;99.90;;;;;;4234644;28;20136;-85
2022/05/12 02:07:50;;;;;;;1.33;0.75;;;9.70;99.90;;;;;;4233803;28;20533;-85
2022/05/12 02:09:50;;;;;;;5.53;0.82;;;9.70;99.90;;;;;;4234460;28;20036;-84
2022/05/12 02:11:51;;;;;;;2.45;0.63;;;10.00;99.90;;;;;;4216408;28;20044;-84
2022/05/12 02:13:52;;;;;;;2.67;0.80;;;9.70;99.90;;;;;;4234605;28;20074;-84
2022/05/12 02:15:56;;;;;;;3.60;1.60;;;9.70;99.90;;;;;;4234496;28;20097;-84
2022/05/12 02:17:57;;;;;;;3.40;0.82;;;9.70;99.90;;;;;;4216503;28;20123;-85
2022/05/12 02:19:58;;;;;;;4.13;1.65;;;9.70;99.90;;;;;;4233561;28;20396;-85
2022/05/12 02:22:01;;;;;;;4.70;1.20;;;9.90;99.90;;;;;;4234079;28;20043;-85
2022/05/12 02:24:04;;;;;;;9.02;1.67;;;9.70;99.90;;;;;;4233953;28;20528;-85
2022/05/12 02:26:06;;;;;;;2.00;1.10;;;9.70;99.90;;;;;;4234419;28;20040;-85
2022/05/12 02:28:08;;;;;;;5.55;1.17;;;9.70;99.90;;;;;;4215721;28;20091;-85
2022/05/12 02:30:11;;;;;;;2.17;1.20;;;9.70;99.90;;;;;;4233725;28;20507;-85
2022/05/12 02:32:12;;;;;;;4.10;0.90;;;9.60;99.90;;;;;;4233656;28;20102;-85
2022/05/12 02:34:13;;;;;;;4.85;1.25;;;9.60;99.90;;;;;;4234026;28;20119;-85
2022/05/12 02:36:14;;;;;;;3.53;1.10;;;9.60;99.90;;;;;;4233958;28;20487;-85
2022/05/12 02:38:14;;;;;;;9.80;2.15;;;9.90;99.90;;;;;;4241819;27;20035;-85
2022/05/12 02:40:19;;;;;;;2.72;0.90;;;9.60;99.90;;;;;;4232303;28;20046;-84
2022/05/12 02:42:22;;;;;;;5.90;1.30;;;9.60;99.90;;;;;;4250453;27;20050;-85
2022/05/12 02:44:23;;;;;;;3.15;1.20;;;9.60;99.90;;;;;;4239049;27;20035;-85
2022/05/12 02:46:24;;;;;;;4.50;1.40;;;9.60;99.90;;;;;;4250739;27;20130;-84
2022/05/12 02:48:40;;;;;;;5.15;1.52;;;9.80;99.90;;;;;;4250099;27;20406;-84
2022/05/12 02:50:42;;;;;;;3.03;1.27;;;10.00;99.90;;;;;;4250718;27;20047;-83
2022/05/12 02:52:43;;;;;;;9.65;1.85;;;9.70;99.90;;;;;;4250211;27;20039;-85
2022/05/12 02:54:44;;;;;;;6.75;1.33;;;9.60;99.90;;;;;;4248453;27;20071;-85
2022/05/12 02:56:46;;;;;;;6.05;1.40;;;9.50;99.90;;;;;;4247116;27;20054;-84
2022/05/12 02:58:47;;;;;;;7.07;1.73;;;9.60;99.90;;;;;;4250416;27;20582;-84
2022/05/12 03:00:48;;;;;;;5.45;1.70;;;9.60;99.90;;;;;;4249885;27;20613;-85
2022/05/12 03:02:49;;;;;;;11.07;2.33;;;9.60;99.90;;;;;;4250859;27;20077;-84
2022/05/12 03:04:49;;;;;;;7.93;1.70;;;9.60;99.90;;;;;;4231780;28;20124;-84
2022/05/12 03:06:51;;;;;;;4.93;1.40;;;10.00;99.90;;;;;;4232627;28;20044;-84
2022/05/12 03:08:53;;;;;;;8.98;1.60;;;9.60;99.90;;;;;;4232108;28;20134;-84
2022/05/12 03:10:54;;;;;;;6.55;1.48;;;9.60;99.90;;;;;;4232119;28;20105;-85
2022/05/12 03:12:55;;;;;;;4.18;1.75;;;9.60;99.90;;;;;;4214500;28;20055;-85
2022/05/12 03:14:56;;;;;;;8.70;1.77;;;9.60;99.90;;;;;;4242104;27;20118;-85
2022/05/12 03:16:58;;;;;;;10.20;2.65;;;9.90;99.90;;;;;;4250438;27;20130;-84
2022/05/12 03:18:59;;;;;;;6.47;2.47;;;9.60;99.90;;;;;;4250144;27;20101;-84
2022/05/12 03:21:00;;;;;;;6.85;2.22;;;9.60;99.90;;;;;;4239902;27;20062;-84
2022/05/12 03:23:00;;;;;;;11.23;1.90;;;10.50;99.90;;;;;;4233428;28;20031;-84
2022/05/12 03:25:04;;;;;;;5.40;1.83;;;9.60;99.90;;;;;;4244300;27;20042;-85
2022/05/12 03:27:05;;;;;;;10.55;1.80;;;9.60;99.90;;;;;;4232438;28;20039;-84
2022/05/12 03:29:06;;;;;;;9.75;2.15;;;9.60;99.90;;;;;;4250292;27;20039;-85
2022/05/12 03:31:08;;;;;;;17.35;2.80;;;9.60;99.90;;;;;;4250376;27;20074;-85
2022/05/12 03:33:09;;;;;;;10.05;2.55;;;9.70;99.90;;;;;;4232573;28;20059;-85
2022/05/12 03:35:11;;;;;;;8.93;2.17;;;9.60;99.90;;;;;;4232007;28;20523;-84
2022/05/12 03:37:12;;;;;;;6.20;2.30;;;9.70;99.90;;;;;;4249472;27;20114;-84
2022/05/12 03:39:13;;;;;;;7.35;2.05;;;10.10;99.90;;;;;;4249837;27;20055;-83
2022/05/12 03:41:13;;;;;;;8.50;3.08;;;9.70;99.90;;;;;;4249862;27;20047;-84
2022/05/12 03:45:33;;;;;;;7.40;2.50;;;10.00;99.90;;;;;;4250079;27;20043;-85
2022/05/12 03:47:38;;;;;;;11.20;2.70;;;9.70;99.90;;;;;;4232297;28;20036;-84
2022/05/12 03:49:39;;;;;;;4.03;2.13;;;9.70;99.90;;;;;;4247891;27;20058;-84
2022/05/12 03:51:40;;;;;;;10.70;2.15;;;9.70;99.90;;;;;;4210522;28;20048;-84
2022/05/12 03:53:41;;;;;;;4.40;2.45;;;9.90;99.90;;;;;;4221584;28;20448;-86
2022/05/12 03:55:42;;;;;;;7.53;3.33;;;10.40;99.90;;;;;;4250188;27;20380;-86
2022/05/12 03:57:45;;;;;;;12.82;2.70;;;9.70;99.90;;;;;;4245768;27;20062;-86
2022/05/12 03:59:48;;;;;;;8.35;2.85;;;9.70;99.90;;;;;;4241123;27;20125;-85
2022/05/12 04:01:48;;;;;;;5.68;2.30;;;9.70;99.90;;;;;;4250248;27;20078;-85
2022/05/12 04:03:51;;;;;;;12.68;3.50;;;9.70;99.90;;;;;;4250053;27;20054;-86
2022/05/12 04:05:54;;;;;;;7.13;3.45;;;10.20;99.90;;;;;;4230802;28;20047;-85
2022/05/12 04:07:56;;;;;;;7.18;2.60;;;10.20;99.90;;;;;;4248747;27;20043;-85
2022/05/12 04:10:00;;;;;;;9.20;3.40;;;9.70;99.90;;;;;;4230981;28;20082;-85
2022/05/12 04:12:01;;;;;;;8.73;2.78;;;9.70;99.90;;;;;;4231027;28;20078;-84
2022/05/12 04:14:04;;;;;;;14.00;3.33;;;9.80;99.90;;;;;;4242254;27;20036;-84
2022/05/12 04:16:05;;;;;;;9.20;3.35;;;10.00;99.90;;;;;;4231907;28;20085;-85
2022/05/12 04:18:06;;;;;;;6.82;2.95;;;9.80;99.90;;;;;;4228492;28;20040;-84
2022/05/12 04:20:12;;;;;;;9.90;2.88;;;9.90;99.90;;;;;;4248701;27;20047;-85
2022/05/12 04:22:14;;;;;;;11.07;3.10;;;9.80;99.90;;;;;;4230843;28;20144;-86
2022/05/12 04:24:16;;;;;;;10.77;3.00;;;9.90;99.90;;;;;;4204245;28;20054;-85
2022/05/12 04:26:16;;;;;;;12.93;3.53;;;9.90;99.90;;;;;;4216468;28;20048;-84
2022/05/12 04:28:19;;;;;;;5.35;2.50;;;9.90;99.90;;;;;;4233056;28;20053;-86
2022/05/12 04:30:24;;;;;;;13.63;3.33;;;9.90;99.90;;;;;;4251889;27;20067;-85
2022/05/12 04:32:25;;;;;;;5.38;2.65;;;9.90;99.90;;;;;;4249575;27;20043;-84
2022/05/12 04:36:46;;;;;;;;;;;10.00;99.90;;;;;;4266514;27;20023;-85
2022/05/12 04:38:47;;;;;;;12.93;2.80;;;10.00;99.90;;;;;;4247599;28;19908;-85
2022/05/12 04:40:51;;;;;;;9.77;2.92;;;10.00;99.90;;;;;;4247636;28;20052;-85
2022/05/12 04:42:54;;;;;;;10.85;3.35;;;10.00;99.90;;;;;;4238832;28;20074;-86
2022/05/12 04:44:55;;;;;;;16.58;3.25;;;10.00;99.90;;;;;;4214910;28;20504;-85
2022/05/12 04:46:56;;;;;;;6.45;2.83;;;10.00;99.90;;;;;;4249551;27;20043;-87
2022/05/12 04:48:57;;;;;;;8.52;2.33;;;10.10;99.90;;;;;;4232840;28;20628;-83
2022/05/12 04:50:58;;;;;;;8.30;3.08;;;10.10;99.90;;;;;;4249139;27;20043;-84
2022/05/12 04:53:00;;;;;;;10.65;3.15;;;10.20;99.90;;;;;;4233688;28;20227;-84
2022/05/12 04:55:01;;;;;;;8.32;3.55;;;9.60;99.90;;;;;;4233027;28;20114;-85
2022/05/12 04:57:02;;;;;;;11.63;3.50;;;10.20;99.90;;;;;;4231737;28;20048;-85
2022/05/12 04:59:04;;;;;;;12.52;3.00;;;10.20;99.90;;;;;;4250070;27;20554;-85
2022/05/12 05:01:05;;;;;;;11.10;3.58;;;10.30;99.90;;;;;;4230709;28;20070;-84
2022/05/12 05:03:06;;;;;;;11.95;3.42;;;10.30;99.90;;;;;;4230089;28;20442;-84
2022/05/12 05:05:07;;;;;;;7.95;3.53;;;10.40;99.90;;;;;;4213826;28;20052;-84
2022/05/12 05:07:10;;;;;;;10.60;3.13;;;10.40;99.90;;;;;;4230015;28;20048;-83
2022/05/12 05:09:11;;;;;;;12.35;3.05;;;10.60;99.90;;;;;;4247399;27;20043;-84
2022/05/12 05:11:12;;;;;;;14.27;3.33;;;10.50;99.90;;;;;;4214774;28;20518;-85
2022/05/12 05:13:13;;;;;;;10.70;3.35;;;10.80;99.90;;;;;;4249064;27;20054;-85
2022/05/12 05:15:15;;;;;;;6.60;2.42;;;10.60;99.90;;;;;;4250628;27;20099;-84
2022/05/12 05:17:16;;;;;;;8.60;3.08;;;9.80;99.90;;;;;;4230229;28;20047;-84
2022/05/12 05:19:17;;;;;;;12.13;4.40;;;10.70;99.90;;;;;;4231088;28;20058;-84
2022/05/12 05:21:19;;;;;;;9.30;3.08;;;10.70;99.90;;;;;;4249000;27;20079;-84
2022/05/12 05:23:21;;;;;;;7.57;2.88;;;10.90;99.90;;;;;;4249442;28;20122;-84
2022/05/12 05:25:22;;;;;;;12.15;3.15;;;10.90;99.90;;;;;;4249352;28;20035;-85
2022/05/12 05:27:26;;;;;;;7.72;2.88;;;11.00;99.90;;;;;;4214659;28;20123;-84
2022/05/12 05:29:26;;;;;;;13.30;2.83;;;11.00;99.90;;;;;;4247897;28;20050;-86
2022/05/12 05:31:28;;;;;;;7.43;2.47;;;11.10;99.90;;;;;;4248745;28;20043;-86
2022/05/12 05:33:28;;;;;;;7.90;3.67;;;11.20;99.90;;;;;;4244613;28;20042;-84
2022/05/12 05:35:29;;;;;;;8.77;2.85;;;11.20;99.90;;;;;;4249055;28;20039;-85
2022/05/12 05:37:31;;;;;;;14.50;2.33;;;11.20;99.90;;;;;;4231073;28;20550;-86
2022/05/12 05:39:33;;;;;;;11.30;3.30;;;11.30;99.90;;;;;;4249194;28;20042;-85
2022/05/12 05:41:37;;;;;;;10.02;3.40;;;11.30;99.90;;;;;;4230414;28;20043;-85
2022/05/12 05:43:38;;;;;;;7.13;2.63;;;11.40;99.90;;;;;;4238263;28;20039;-86
2022/05/12 05:45:40;;;;;;;8.60;3.10;;;11.50;99.90;;;;;;4250858;28;20093;-85
2022/05/12 05:47:45;;;;;;;7.53;2.95;;;11.50;99.90;;;;;;4253969;28;20039;-85
2022/05/12 05:49:45;;;;;;;8.85;3.20;;;11.50;99.90;;;;;;4249782;28;20510;-85
2022/05/12 05:54:05;;;;;;;7.90;4.18;;;12.20;99.90;;;;;;4231570;28;20048;-84
2022/05/12 05:56:14;;;;;;;9.05;2.55;;;11.80;99.90;;;;;;4230783;28;20084;-84
2022/05/12 05:58:16;;;;;;;10.88;2.47;;;11.80;99.90;;;;;;4250198;28;20042;-85
2022/05/12 06:00:18;;;;;;;11.20;3.47;;;11.90;99.90;;;;;;4230628;28;20159;-85
2022/05/12 06:02:19;;;;;;;9.07;2.75;;;11.90;99.90;;;;;;4217190;28;20094;-85
2022/05/12 06:04:20;;;;;;;8.73;2.72;;;12.00;99.90;;;;;;4216184;28;20145;-85
2022/05/12 06:06:21;;;;;;;10.63;2.42;;;12.10;99.90;;;;;;4233950;28;20102;-86
2022/05/12 06:08:23;;;;;;;5.25;2.40;;;12.10;99.90;;;;;;4215921;28;20039;-85
2022/05/12 06:10:25;;;;;;;6.40;2.95;;;12.20;99.90;;;;;;4234176;28;20040;-85
2022/05/12 06:12:26;;;;;;;10.50;3.05;;;12.30;99.90;;;;;;4233310;28;20062;-84
2022/05/12 06:14:28;;;;;;;6.55;2.58;;;12.30;99.90;;;;;;4235200;28;20165;-84
2022/05/12 06:16:31;;;;;;;7.55;2.90;;;12.40;99.90;;;;;;4236071;28;20487;-84
2022/05/12 06:18:32;;;;;;;4.85;2.45;;;12.50;99.90;;;;;;4234032;28;20044;-85
2022/05/12 06:20:34;;;;;;;11.20;2.65;;;12.50;99.90;;;;;;4248954;27;20059;-85
2022/05/12 06:22:35;;;;;;;9.07;2.83;;;12.70;99.90;;;;;;4252218;27;20089;-85
2022/05/12 06:24:39;;;;;;;11.55;2.85;;;12.70;99.90;;;;;;4236049;28;20032;-85
2022/05/12 06:26:40;;;;;;;5.78;2.25;;;12.70;99.90;;;;;;4229255;28;20101;-85
2022/05/12 06:28:45;;;;;;;10.57;2.92;;;12.70;99.90;;;;;;4254247;27;20039;-84
2022/05/12 06:30:46;;;;;;;8.90;2.42;;;12.80;99.90;;;;;;4222427;28;20044;-84
2022/05/12 06:32:49;;;;;;;5.18;2.20;;;12.90;99.90;;;;;;4257499;27;20391;-85
2022/05/12 06:34:50;;;;;;;6.60;2.10;;;13.00;99.90;;;;;;4254704;27;20046;-84
2022/05/12 06:36:51;;;;;;;4.68;1.70;;;13.10;99.90;;;;;;4250905;27;20126;-84
2022/05/12 06:38:52;;;;;;;7.30;2.08;;;13.40;99.90;;;;;;4251244;27;20095;-84
2022/05/12 06:40:55;;;;;;;4.68;2.17;;;13.40;99.90;;;;;;4236873;28;20099;-85
2022/05/12 06:42:58;;;;;;;8.30;1.73;;;13.30;99.90;;;;;;4222909;28;20048;-85
2022/05/12 06:44:59;;;;;;;6.43;1.90;;;13.40;99.90;;;;;;4252646;27;20085;-85
2022/05/12 06:47:02;;;;;;;6.60;2.38;;;13.50;99.90;;;;;;4233909;28;20043;-85
2022/05/12 06:49:03;;;;;;;9.23;1.58;;;13.50;99.90;;;;;;4232836;28;20153;-84
2022/05/12 06:51:05;;;;;;;6.10;1.55;;;13.60;99.90;;;;;;4232487;28;20043;-84
2022/05/12 06:53:05;;;;;;;5.50;1.83;;;13.60;99.90;;;;;;4233266;28;20074;-85
2022/05/12 06:55:07;;;;;;;7.10;1.95;;;13.70;99.90;;;;;;4234543;28;20047;-85
2022/05/12 06:57:09;;;;;;;8.50;1.85;;;13.80;99.90;;;;;;4216686;28;20095;-85
2022/05/12 06:59:10;;;;;;;7.03;1.80;;;13.90;99.90;;;;;;4234190;28;20047;-85
2022/05/12 07:01:11;;;;;;;12.40;1.70;;;14.00;99.90;;;;;;4215194;28;20456;-84
2022/05/12 07:03:13;;;;;;;5.30;1.75;;;14.00;99.90;;;;;;4233041;28;20122;-84
2022/05/12 07:05:18;;;;;;;3.33;1.33;;;14.00;99.90;;;;;;4216221;28;20051;-84
2022/05/12 07:07:20;;;;;;;5.07;1.73;;;14.00;99.90;;;;;;4234612;28;20047;-84
2022/05/12 07:09:22;;;;;;;6.50;2.33;;;14.10;99.90;;;;;;4218117;28;20052;-84
2022/05/12 07:11:23;;;;;;;7.70;1.80;;;14.10;99.90;;;;;;4219265;28;20058;-84
2022/05/12 07:13:24;;;;;;;4.53;1.25;;;14.10;99.90;;;;;;4235243;28;20045;-84
2022/05/12 07:15:27;;;;;;;12.52;2.47;;;14.30;99.90;;;;;;4235034;28;20047;-84
2022/05/12 07:17:28;;;;;;;4.80;1.45;;;14.40;99.90;;;;;;4216630;28;20063;-85
2022/05/12 07:19:32;;;;;;;4.05;1.10;;;14.40;99.90;;;;;;4236130;28;20491;-84
2022/05/12 07:28:34;;;;;;;4.85;1.42;;;14.90;99.90;;;;;;4240664;27;20067;-85
2022/05/12 07:31:00;;;;;;;8.70;1.50;;;14.90;99.90;;;;;;4244268;28;20058;-83
2022/05/12 07:32:58;;;;;;;8.27;1.40;;;15.00;99.90;;;;;;4259916;27;20047;-87
2022/05/12 07:34:58;;;;;;;5.82;1.60;;;15.00;99.90;;;;;;4242025;28;20051;-85
2022/05/12 07:37:02;;;;;;;9.25;1.55;;;15.10;99.90;;;;;;4237180;28;20492;-86
2022/05/12 07:39:05;;;;;;;7.15;1.00;;;15.20;99.90;;;;;;4223163;28;20040;-86
2022/05/12 07:41:09;;;;;;;5.50;1.10;;;15.40;99.90;;;;;;4258312;27;20395;-86
2022/05/12 07:43:10;;;;;;;12.18;2.15;;;15.40;99.90;;;;;;4257965;27;20063;-86
2022/05/12 07:45:11;;;;;;;5.22;1.48;;;15.50;99.90;;;;;;4241289;28;20051;-85
2022/05/12 07:47:15;;;;;;;7.40;1.27;;;15.50;99.90;;;;;;4252445;27;20418;-86
2022/05/12 07:49:18;;;;;;;5.47;1.13;;;15.60;99.40;;;;;;4232366;28;20114;-87
2022/05/12 07:51:20;;;;;;;8.15;1.30;;;15.70;99.90;;;;;;4231857;28;20500;-86
2022/05/12 07:53:21;;;;;;;7.82;1.30;;;15.80;99.90;;;;;;4232122;28;20058;-87
2022/05/12 07:55:22;;;;;;;5.72;1.35;;;15.90;99.70;;;;;;4250394;27;20089;-87
2022/05/12 07:57:23;;;;;;;8.35;1.17;;;15.90;99.40;;;;;;4248469;27;20430;-86
2022/05/12 07:59:24;;;;;;;5.47;0.85;;;16.10;99.90;;;;;;4249596;27;20075;-87
2022/05/12 08:01:26;;;;;;;7.15;1.48;;;16.10;99.20;;;;;;4248948;27;20043;-87
2022/05/12 08:03:27;;;;;;;5.95;1.08;;;16.20;99.20;;;;;;4250232;27;20054;-85
2022/05/12 08:05:29;;;;;;;7.75;1.30;;;16.30;99.50;;;;;;4247620;27;20036;-86
2022/05/12 08:07:31;;;;;;;4.75;1.65;;;16.30;98.40;;;;;;4230512;28;20480;-85
2022/05/12 08:09:32;;;;;;;10.32;0.95;;;16.40;97.90;;;;;;4249578;27;20118;-86
2022/05/12 08:11:33;;;;;;;16.80;3.00;;;16.00;97.30;;;;;;4232741;28;20047;-86
2022/05/12 08:13:34;;;;;;;7.10;1.48;;;16.40;96.80;;;;;;4232846;28;20075;-87
2022/05/12 08:15:35;;;;;;;8.23;1.20;;;16.40;96.40;;;;;;4232292;28;20036;-87
2022/05/12 08:17:37;;;;;;;5.55;1.20;;;16.40;96.30;;;;;;4249015;27;20127;-88
2022/05/12 08:19:37;;;;;;;6.38;1.05;;;16.50;95.80;;;;;;4249848;27;20066;-88
2022/05/12 08:21:38;;;;;;;8.45;1.33;;;16.50;95.60;;;;;;4249712;27;20069;-88
2022/05/12 08:23:40;;;;;;;5.28;1.45;;;;;;;;;;4231295;28;20548;-88
2022/05/12 08:25:42;;;;;;;4.32;1.05;;;16.70;95.80;;;;;;4214179;28;20048;-88
2022/05/12 08:27:42;;;;;;;4.60;0.93;;;17.00;94.80;;;;;;4197385;28;20056;-88
2022/05/12 08:29:43;;;;;;;3.83;0.90;;;16.90;94.20;;;;;;4232178;28;20099;-89
2022/05/12 08:31:44;;;;;;;7.57;1.08;;;;;;;;;;4197064;28;20079;-88
2022/05/12 08:33:46;;;;;;;7.07;1.02;;;;;;;;;;4233916;28;20060;-88
2022/05/12 08:35:47;;;;;;;2.53;0.90;;;;;;;;;;4216592;28;20044;-87
2022/05/12 08:37:48;;;;;;;5.07;0.88;;;17.10;94.60;;;;;;4214999;28;20056;-88
2022/05/12 08:39:49;;;;;;;5.82;1.30;;;18.00;93.10;;;;;;4214240;28;20063;-88
2022/05/12 08:41:59;;;;;;;6.25;0.95;;;;;;;;;;4231496;28;20104;-88
2022/05/12 08:44:08;;;;;;;6.88;0.98;;;18.10;91.90;;;;;;4232373;28;20483;-89
2022/05/12 08:46:32;;;;;;;4.80;0.80;;;18.10;90.60;;;;;;4232166;28;20226;-89
2022/05/12 08:48:37;;;;;;;3.60;0.70;;;18.00;89.70;;;;;;4224148;28;20135;-87
2022/05/12 08:50:40;;;;;;;6.95;1.50;;;18.00;90.00;;;;;;4214210;28;20056;-87
2022/05/12 08:52:55;;;;;;;7.20;0.80;;;18.20;90.10;;;;;;4232156;28;20048;-88
2022/05/12 08:55:19;;;;;;;9.23;1.10;;;18.30;89.10;;;;;;4213983;28;20083;-88
2022/05/12 08:57:38;;;;;;;9.00;0.63;;;18.60;88.50;;;;;;4231698;28;20040;-89
2022/05/12 08:59:40;;;;;;;3.83;0.70;;;18.80;85.80;;;;;;4197793;28;20044;-89
2022/05/12 09:02:07;;;;;;;2.80;1.13;;;18.90;87.20;;;;;;4247675;27;20051;-89
2022/05/12 09:04:26;;;;;;;4.25;0.90;;;18.90;81.10;;;;;;4237811;27;20051;-90
2022/05/12 09:06:33;;;;;;;4.85;1.10;;;18.90;82.80;;;;;;4247325;27;20525;-90
2022/05/12 09:08:51;;;;;;;3.58;0.70;;;18.80;83.00;;;;;;4247926;27;20047;-89
2022/05/12 09:11:04;;;;;;;8.32;0.90;;;18.90;81.10;;;;;;4248812;27;20487;-91
2022/05/12 09:13:14;;;;;;;5.47;0.90;;;18.80;81.40;;;;;;4248693;27;20206;-91
2022/05/12 09:15:46;;;;;;;7.85;1.10;;;18.80;81.00;;;;;;4249080;27;20051;-89
2022/05/12 09:17:47;;;;;;;2.92;1.40;;;18.80;79.00;;;;;;4248521;27;20039;-88
2022/05/12 09:19:48;;;;;;;4.78;0.80;;;18.90;81.40;;;;;;4248055;27;20062;-88
2022/05/12 09:21:50;;;;;;;5.47;0.93;;;18.90;81.50;;;;;;4231739;28;20051;-90
2022/05/12 09:23:51;;;;;;;2.50;0.60;;;18.80;82.00;;;;;;4250338;27;20110;-89
2022/05/12 09:25:52;;;;;;;1.83;0.50;;;18.70;80.70;;;;;;4249574;28;20071;-88
2022/05/12 09:27:58;;;;;;;1.95;0.50;;;18.60;80.00;;;;;;4249622;28;20096;-88
2022/05/12 09:29:59;;;;;;;2.47;0.77;;;18.50;79.50;;;;;;4248564;28;20544;-88
2022/05/12 09:32:03;;;;;;;2.67;0.70;;;18.20;77.20;;;;;;4248242;28;20074;-89
2022/05/12 09:34:31;;;;;;;4.40;0.95;;;18.20;76.90;;;;;;4249740;28;20039;-89
2022/05/12 09:36:32;;;;;;;6.65;0.77;;;18.30;74.70;;;;;;4247805;28;20043;-88
2022/05/12 09:38:40;;;;;;;6.68;0.82;;;18.10;76.00;;;;;;4248244;28;20113;-89
2022/05/12 09:40:41;;;;;;;6.90;0.88;;;18.20;74.00;;;;;;4248922;28;20548;-89
2022/05/12 09:42:46;;;;;;;5.40;0.60;;;18.20;75.80;;;;;;4230652;28;20039;-90
2022/05/12 09:45:01;;;;;;;4.10;0.80;;;18.30;74.20;;;;;;4220295;28;20512;-91
2022/05/12 09:47:11;;;;;;;2.30;0.73;;;18.30;70.50;;;;;;4232893;28;20534;-88
2022/05/12 09:49:18;;;;;;;6.22;1.05;;;18.60;71.30;;;;;;4233602;28;20048;-89
2022/05/12 09:51:25;;;;;;;3.47;0.70;;;18.70;73.00;;;;;;4217945;28;20367;-89
2022/05/12 09:53:30;;;;;;;2.35;0.90;;;18.70;71.30;;;;;;4201909;28;20052;-89
2022/05/12 09:55:37;;;;;;;3.67;1.02;;;18.80;71.80;;;;;;4238074;28;20044;-90
2022/05/12 09:57:54;;;;;;;4.97;0.93;;;18.70;70.50;;;;;;4238058;28;20062;-90
2022/05/12 09:59:57;;;;;;;5.03;1.30;;;18.40;68.30;;;;;;4221320;28;20047;-89
2022/05/12 10:02:02;;;;;;;5.18;0.75;;;18.50;70.80;;;;;;4253381;27;20531;-91
2022/05/12 10:09:23;;;;;;;2.75;0.75;;;;;;;;;;4233609;28;20543;-90
2022/05/12 10:11:28;;;;;;;6.22;0.77;;;;;;;;;;4217708;28;20373;-89
2022/05/12 10:13:50;;;;;;;3.30;0.50;;;;;;;;;;4201341;28;20040;-91
2022/05/12 10:15:54;;;;;;;4.50;1.02;;;;;;;;;;4200792;28;20076;-90
2022/05/12 10:18:15;;;;;;;4.60;0.60;;;;;;;;;;4216832;28;20040;-89
2022/05/12 10:20:21;;;;;;;3.90;0.70;;;;;;;;;;4199816;28;20087;-89
2022/05/12 10:22:29;;;;;;;5.60;0.98;;;;;;;;;;4218524;28;20055;-89
2022/05/12 10:24:31;;;;;;;6.90;1.13;;;;;;;;;;4199815;28;20044;-89
2022/05/12 10:26:42;;;;;;;2.17;0.70;;;;;;;;;;4229398;28;20343;-88
2022/05/12 10:28:50;;;;;;;3.28;1.33;;;;;;;;;;4216491;28;20044;-89
2022/05/12 10:30:56;;;;;;;3.05;0.70;;;;;;;;;;4235029;28;20056;-89
2022/05/12 10:32:58;;;;;;;6.82;0.70;;;;;;;;;;4234801;28;20092;-87
2022/05/12 10:35:23;;;;;;;1.77;0.60;;;18.90;69.80;;;;;;4235248;28;20055;-90
2022/05/12 10:37:29;;;;;;;5.55;0.70;;;20.90;57.80;;;;;;4249464;27;20666;-91
2022/05/12 10:40:08;;;;;;;2.70;0.50;;;20.90;59.40;;;;;;4237561;28;20035;-88
2022/05/12 10:42:19;;;;;;;6.38;0.57;;;;;;;;;;4214034;28;20065;-89
2022/05/12 10:44:35;;;;;;;4.13;0.90;;;;;;;;;;4235110;28;20075;-89
2022/05/12 10:47:01;;;;;;;7.93;0.95;;;20.70;58.20;;;;;;4234891;28;20039;-90
2022/05/12 10:49:09;;;;;;;2.58;0.65;;;;;;;;;;4235955;28;20418;-91
2022/05/12 10:51:27;;;;;;;4.45;0.60;;;;;;;;;;4237807;28;20055;-90
2022/05/12 10:53:34;;;;;;;1.90;0.53;;;;;;;;;;4218812;28;20491;-90
2022/05/12 10:55:39;;;;;;;3.83;0.80;;;;;;;;;;4218698;28;20078;-90
2022/05/12 10:57:43;;;;;;;1.98;0.70;;;;;;;;;;4217873;28;20055;-89
2022/05/12 10:59:50;;;;;;;4.18;0.50;;;;;;;;;;4218320;28;20099;-90
2022/05/12 11:02:10;;;;;;;3.38;0.60;;;;;;;;;;4234414;28;20047;-89
2022/05/12 11:04:16;;;;;;;1.42;0.40;;;;;;;;;;4233306;28;20099;-90
2022/05/12 11:06:19;;;;;;;2.88;0.80;;;;;;;;;;4234188;28;20051;-88
2022/05/12 11:08:25;;;;;;;3.33;0.75;;;;;;;;;;4215817;28;20040;-91
2022/05/12 11:10:29;;;;;;;3.08;0.77;;;;;;;;;;4215834;28;20096;-90
2022/05/12 11:12:54;;;;;;;3.25;0.82;;;;;;;;;;4234340;28;20438;-87